Time;durP1;ratioP1;P1;durP2;ratioP2;P2;SDS_P1;SDS_P2;PMS_P1;PMS_P2;Temp;Humidity;BMP_temperature;BMP_pressure;BME280_temperature;BME280_humidity;BME280_pressure;Samples;Min_cycle;Max_cycle;Signal;HPM_P1;HPM_P2
2021/07/10 00:01:48;;;;;;;1.10;0.23;;;;;;;18.36;67.20;96777.20;1630012;86;22037;-79
2021/07/10 00:04:16;;;;;;;1.62;0.40;;;;;;;18.32;67.79;96784.73;1645361;86;21002;-79
2021/07/10 00:06:42;;;;;;;0.70;0.50;;;;;;;18.25;67.62;96782.71;1652456;86;20928;-80
2021/07/10 00:09:07;;;;;;;1.10;0.50;;;;;;;18.19;68.12;96770.42;1657866;86;21404;-80
2021/07/10 00:11:33;;;;;;;0.33;0.20;;;;;;;18.13;68.25;96764.73;1652667;86;20970;-79
2021/07/10 00:13:59;;;;;;;1.30;0.30;;;;;;;18.08;68.26;96753.57;1651704;86;21055;-79
2021/07/10 00:16:24;;;;;;;1.50;0.40;;;;;;;18.06;68.37;96754.78;1647423;86;21055;-79
2021/07/10 00:18:50;;;;;;;1.95;0.70;;;;;;;18.03;68.54;96747.34;1645515;86;21400;-79
2021/07/10 00:21:16;;;;;;;0.65;0.42;;;;;;;17.95;68.39;96745.82;1655923;85;21014;-79
2021/07/10 00:23:42;;;;;;;1.62;0.40;;;;;;;17.86;67.94;96745.80;1645704;86;21193;-79
2021/07/10 00:26:08;;;;;;;0.95;0.40;;;;;;;17.83;68.07;96750.99;1652388;86;20952;-78
2021/07/10 00:28:33;;;;;;;0.35;0.28;;;;;;;17.81;68.12;96756.18;1655117;85;21090;-79
2021/07/10 00:30:59;;;;;;;0.70;0.40;;;;;;;17.77;68.53;96751.88;1650013;86;21016;-80
2021/07/10 00:33:25;;;;;;;0.85;0.35;;;;;;;17.74;69.08;96758.89;1643943;86;21081;-80
2021/07/10 00:35:52;;;;;;;0.78;0.23;;;;;;;17.74;68.35;96767.28;1653498;86;21086;-79
2021/07/10 00:38:17;;;;;;;0.88;0.30;;;;;;;17.72;68.92;96774.55;1652599;86;21027;-81
2021/07/10 00:40:43;;;;;;;1.62;0.47;;;;;;;17.67;69.06;96777.81;1643040;86;21011;-81
2021/07/10 00:43:09;;;;;;;0.75;0.40;;;;;;;17.64;69.02;96777.73;1643189;86;21019;-81
2021/07/10 00:45:35;;;;;;;0.70;0.30;;;;;;;17.63;69.26;96780.58;1639079;86;21014;-82
2021/07/10 00:48:01;;;;;;;0.85;0.40;;;;;;;17.57;69.37;96777.00;1647455;86;20930;-81
2021/07/10 00:50:27;;;;;;;1.98;0.30;;;;;;;17.48;69.45;96786.67;1647776;86;21339;-81
2021/07/10 00:52:53;;;;;;;0.53;0.40;;;;;;;17.47;69.36;96791.64;1642241;86;20985;-81
2021/07/10 00:55:19;;;;;;;0.70;0.40;;;;;;;17.49;69.20;96794.34;1647279;86;21346;-81
2021/07/10 00:57:44;;;;;;;0.82;0.40;;;;;;;17.47;69.11;96795.58;1644520;86;20997;-80
2021/07/10 01:00:13;;;;;;;0.80;0.50;;;;;;;17.47;69.07;96796.38;1626077;86;20967;-81
2021/07/10 01:02:40;;;;;;;0.60;0.40;;;;;;;17.46;69.15;96799.22;1649299;86;21038;-81
2021/07/10 01:05:10;;;;;;;1.00;0.50;;;;;;;17.46;69.25;96797.41;1653008;86;21033;-81
2021/07/10 01:07:36;;;;;;;0.85;0.40;;;;;;;17.47;69.23;96797.69;1648325;86;21031;-81
2021/07/10 01:10:02;;;;;;;1.47;0.50;;;;;;;17.45;69.23;96790.54;1640906;86;21047;-82
2021/07/10 01:12:30;;;;;;;1.92;0.90;;;;;;;17.46;69.27;96790.03;1627342;86;21520;-81
2021/07/10 01:14:56;;;;;;;1.82;0.95;;;;;;;17.46;69.19;96778.20;1638586;86;21030;-81
2021/07/10 01:17:22;;;;;;;0.45;0.30;;;;;;;17.50;69.65;96782.81;1643570;86;21109;-81
2021/07/10 01:20:03;;;;;;;0.50;0.30;;;;;;;17.51;69.81;96789.67;1621276;86;20990;-79
2021/07/10 01:22:29;;;;;;;1.17;0.50;;;;;;;17.48;69.76;96790.62;1645853;86;21087;-79
2021/07/10 01:24:56;;;;;;;1.70;0.35;;;;;;;17.41;70.03;96792.00;1645280;86;21103;-79
2021/07/10 01:27:21;;;;;;;1.67;0.53;;;;;;;17.35;70.44;96796.27;1647348;86;21397;-79
2021/07/10 01:29:48;;;;;;;1.07;0.30;;;;;;;17.30;70.26;96800.05;1628861;86;20974;-79
2021/07/10 01:32:20;;;;;;;1.55;0.95;;;;;;;17.27;70.40;96809.67;1645759;86;21293;-79
2021/07/10 01:34:45;;;;;;;3.10;0.60;;;;;;;17.22;70.50;96803.43;1650267;86;21081;-79
2021/07/10 01:37:16;;;;;;;1.22;0.50;;;;;;;17.17;70.56;96804.59;1643464;86;21001;-79
2021/07/10 01:39:42;;;;;;;1.50;0.40;;;;;;;17.11;70.66;96812.81;1652626;86;20989;-79
2021/07/10 01:42:09;;;;;;;1.37;0.40;;;;;;;17.05;70.70;96813.13;1654412;86;21056;-81
2021/07/10 01:44:35;;;;;;;1.00;0.55;;;;;;;17.01;70.81;96809.84;1653035;86;21282;-81
2021/07/10 01:47:01;;;;;;;0.68;0.45;;;;;;;16.98;71.02;96816.32;1648620;86;20981;-81
2021/07/10 01:49:27;;;;;;;1.62;0.68;;;;;;;16.97;71.00;96820.47;1659220;86;21286;-81
2021/07/10 01:51:53;;;;;;;1.72;0.65;;;;;;;16.94;71.09;96819.59;1648810;86;20955;-81
2021/07/10 01:54:18;;;;;;;0.80;0.53;;;;;;;16.93;71.14;96814.04;1652455;86;21048;-81
2021/07/10 01:56:44;;;;;;;1.80;1.17;;;;;;;16.87;71.23;96813.05;1651177;86;22315;-81
2021/07/10 01:59:10;;;;;;;0.68;0.50;;;;;;;16.84;71.47;96816.61;1650706;85;20970;-81
2021/07/10 02:01:35;;;;;;;1.62;0.40;;;;;;;16.80;71.64;96820.16;1652733;86;21268;-81
2021/07/10 02:04:02;;;;;;;1.70;0.50;;;;;;;16.71;71.58;96820.90;1650720;86;20977;-82
2021/07/10 02:06:28;;;;;;;1.47;0.50;;;;;;;16.64;71.81;96817.48;1650075;86;21294;-81
2021/07/10 02:08:54;;;;;;;1.85;0.40;;;;;;;16.63;71.85;96807.20;1648135;86;20968;-81
2021/07/10 02:11:21;;;;;;;3.80;0.50;;;;;;;16.63;71.98;96808.52;1654754;86;21031;-81
2021/07/10 02:13:46;;;;;;;4.08;0.42;;;;;;;16.61;71.93;96800.85;1647518;86;21260;-81
2021/07/10 02:16:16;;;;;;;2.20;0.88;;;;;;;16.59;72.06;96805.48;1648333;86;21018;-81
2021/07/10 02:18:41;;;;;;;2.05;0.40;;;;;;;16.53;72.20;96807.63;1651598;86;21307;-81
2021/07/10 02:21:09;;;;;;;0.80;0.40;;;;;;;16.48;72.60;96801.71;1654170;86;21064;-81
2021/07/10 02:23:35;;;;;;;1.22;0.60;;;;;;;16.44;72.72;96792.66;1652758;86;21446;-81
2021/07/10 02:26:01;;;;;;;1.00;0.40;;;;;;;16.43;72.85;96798.08;1651697;86;20986;-80
2021/07/10 02:28:27;;;;;;;0.95;0.40;;;;;;;16.43;72.86;96802.02;1649556;86;21063;-81
2021/07/10 02:30:53;;;;;;;2.58;0.40;;;;;;;16.43;72.89;96804.64;1655867;86;21034;-81
2021/07/10 02:33:18;;;;;;;0.85;0.47;;;;;;;16.42;72.79;96803.03;1651411;86;21089;-81
2021/07/10 02:35:45;;;;;;;1.22;0.60;;;;;;;16.38;72.97;96796.59;1630374;86;21124;-81
2021/07/10 02:38:12;;;;;;;1.72;0.53;;;;;;;16.35;73.16;96797.82;1630893;86;21096;-81
2021/07/10 02:40:39;;;;;;;0.72;0.50;;;;;;;16.32;73.25;96796.93;1631849;86;21423;-81
2021/07/10 02:43:05;;;;;;;1.05;0.50;;;;;;;16.30;73.19;96797.65;1630073;86;21006;-81
2021/07/10 02:45:31;;;;;;;1.15;0.50;;;;;;;16.29;73.25;96801.80;1631666;86;21338;-81
2021/07/10 02:47:57;;;;;;;1.65;0.60;;;;;;;16.30;73.52;96795.53;1632637;86;21076;-81
2021/07/10 02:50:24;;;;;;;0.88;0.60;;;;;;;16.28;73.46;96807.55;1631431;86;21036;-79
2021/07/10 02:52:53;;;;;;;0.93;0.60;;;;;;;16.25;73.58;96815.80;1635519;86;21002;-80
2021/07/10 02:55:18;;;;;;;1.95;0.35;;;;;;;16.22;73.69;96805.73;1633264;86;21025;-79
2021/07/10 02:57:43;;;;;;;1.92;0.70;;;;;;;16.21;73.78;96808.05;1635736;86;20990;-78
2021/07/10 03:00:13;;;;;;;1.27;0.55;;;;;;;16.21;73.84;96808.86;1636159;86;20967;-79
2021/07/10 03:02:38;;;;;;;1.52;0.50;;;;;;;16.21;73.93;96816.72;1632902;86;21069;-79
2021/07/10 03:05:06;;;;;;;0.90;0.53;;;;;;;16.24;73.91;96814.70;1636834;86;21253;-79
2021/07/10 03:07:32;;;;;;;0.80;0.40;;;;;;;16.23;74.17;96815.20;1636454;86;21010;-79
2021/07/10 03:09:58;;;;;;;2.72;0.80;;;;;;;16.22;74.11;96814.91;1635625;86;21043;-79
2021/07/10 03:12:24;;;;;;;0.88;0.50;;;;;;;16.18;74.15;96827.63;1639813;86;21424;-79
2021/07/10 03:14:49;;;;;;;1.27;0.50;;;;;;;16.15;74.25;96823.31;1637929;86;20993;-80
2021/07/10 03:17:16;;;;;;;0.82;0.50;;;;;;;16.14;74.27;96827.75;1636474;86;20987;-78
2021/07/10 03:19:41;;;;;;;1.32;0.50;;;;;;;16.17;74.21;96826.02;1636539;86;21381;-79
2021/07/10 03:22:07;;;;;;;2.90;0.68;;;;;;;16.18;74.23;96828.94;1634590;86;20933;-79
2021/07/10 03:24:33;;;;;;;1.42;0.40;;;;;;;16.18;74.22;96824.20;1635604;86;21062;-79
2021/07/10 03:26:59;;;;;;;1.02;0.50;;;;;;;16.18;74.30;96826.31;1635854;86;20973;-79
2021/07/10 03:29:24;;;;;;;1.00;0.57;;;;;;;16.18;74.35;96826.83;1635788;86;20987;-78
2021/07/10 03:31:50;;;;;;;0.82;0.50;;;;;;;16.17;74.37;96826.02;1634447;86;21302;-79
2021/07/10 03:34:16;;;;;;;0.93;0.40;;;;;;;16.18;74.33;96834.19;1637766;86;20997;-79
2021/07/10 03:36:42;;;;;;;1.15;0.42;;;;;;;16.20;74.31;96828.22;1658825;85;21033;-79
2021/07/10 03:39:08;;;;;;;0.90;0.60;;;;;;;16.21;74.34;96827.72;1665460;86;20959;-79
2021/07/10 03:41:34;;;;;;;1.20;0.40;;;;;;;16.21;74.38;96827.21;1653972;85;20954;-80
2021/07/10 03:44:00;;;;;;;1.10;0.50;;;;;;;16.22;74.55;96824.08;1652755;86;21036;-79
2021/07/10 03:46:26;;;;;;;0.57;0.45;;;;;;;16.21;74.64;96827.72;1651784;86;20952;-79
2021/07/10 03:48:51;;;;;;;0.45;0.40;;;;;;;16.24;74.72;96835.17;1653557;86;21068;-79
2021/07/10 03:51:17;;;;;;;1.62;0.42;;;;;;;16.28;74.85;96840.83;1653428;86;21339;-79
2021/07/10 03:53:43;;;;;;;1.40;0.45;;;;;;;16.34;74.88;96832.93;1626683;86;21044;-79
2021/07/10 03:56:08;;;;;;;0.70;0.45;;;;;;;16.42;74.70;96832.69;1652944;86;21090;-79
2021/07/10 03:58:34;;;;;;;1.00;0.70;;;;;;;16.49;74.30;96831.37;1653519;86;21094;-79
2021/07/10 04:01:00;;;;;;;0.53;0.50;;;;;;;16.57;73.82;96827.69;1652957;86;21293;-79
2021/07/10 04:03:26;;;;;;;0.98;0.50;;;;;;;16.64;73.81;96834.53;1655680;86;20966;-79
2021/07/10 04:05:51;;;;;;;0.70;0.40;;;;;;;16.72;73.84;96838.76;1655714;86;21007;-78
2021/07/10 04:08:17;;;;;;;0.93;0.40;;;;;;;16.76;73.09;96839.97;1656956;86;21331;-79
2021/07/10 04:10:43;;;;;;;1.65;0.53;;;;;;;16.80;72.95;96841.16;1653160;86;20968;-79
2021/07/10 04:13:12;;;;;;;0.72;0.30;;;;;;;16.87;72.53;96833.23;1650313;86;20942;-79
2021/07/10 04:15:38;;;;;;;1.70;0.60;;;;;;;16.93;72.50;96837.66;1650963;86;20985;-79
2021/07/10 04:18:04;;;;;;;1.98;0.60;;;;;;;16.98;72.41;96836.01;1647976;86;21326;-79
2021/07/10 04:20:30;;;;;;;0.40;0.40;;;;;;;16.99;72.22;96834.19;1655488;86;20957;-79
2021/07/10 04:22:55;;;;;;;1.25;0.50;;;;;;;16.99;72.13;96838.92;1645405;86;20977;-79
2021/07/10 04:25:21;;;;;;;1.27;0.47;;;;;;;17.02;72.09;96841.64;1651553;86;21122;-79
2021/07/10 04:27:47;;;;;;;2.42;1.75;;;;;;;17.04;71.98;96844.34;1653815;86;21243;-79
2021/07/10 04:30:15;;;;;;;0.90;0.50;;;;;;;17.08;71.87;96844.72;1654252;86;21632;-79
2021/07/10 04:32:41;;;;;;;0.80;0.50;;;;;;;17.14;71.76;96844.41;1623553;86;20970;-79
2021/07/10 04:35:07;;;;;;;0.98;0.57;;;;;;;17.11;72.05;96843.01;1657142;86;20990;-79
2021/07/10 04:37:34;;;;;;;1.98;0.60;;;;;;;17.12;71.81;96844.62;1651449;86;21061;-79
2021/07/10 04:40:00;;;;;;;2.20;0.60;;;;;;;17.08;71.83;96844.72;1652389;86;21045;-79
2021/07/10 04:42:25;;;;;;;1.07;0.45;;;;;;;17.12;71.92;96850.38;1651934;86;20975;-79
2021/07/10 04:44:52;;;;;;;2.25;1.02;;;;;;;17.17;72.08;96846.60;1653420;86;20997;-79
2021/07/10 04:47:18;;;;;;;1.65;1.02;;;;;;;17.22;71.33;96849.39;1652214;86;21055;-79
2021/07/10 04:49:44;;;;;;;1.27;0.72;;;;;;;17.23;71.33;96847.05;1654116;86;20969;-79
2021/07/10 04:52:10;;;;;;;1.20;1.00;;;;;;;17.33;71.58;96848.20;1649233;85;20981;-79
2021/07/10 04:54:35;;;;;;;1.82;1.00;;;;;;;17.42;71.74;96849.28;1654769;86;20998;-79
2021/07/10 04:57:01;;;;;;;1.60;1.10;;;;;;;17.40;70.79;96846.33;1654765;86;21363;-79
2021/07/10 04:59:27;;;;;;;2.45;1.17;;;;;;;17.39;71.14;96855.22;1654079;86;20976;-79
2021/07/10 05:01:53;;;;;;;1.90;0.90;;;;;;;17.41;70.94;96856.35;1648890;86;21059;-79
2021/07/10 05:04:19;;;;;;;1.50;0.82;;;;;;;17.40;70.77;96859.45;1642904;86;21044;-79
2021/07/10 05:06:44;;;;;;;2.37;0.90;;;;;;;17.38;70.19;96862.00;1653320;86;21370;-79
2021/07/10 05:09:10;;;;;;;1.17;0.85;;;;;;;17.36;70.73;96864.84;1650185;86;21038;-79
2021/07/10 05:11:36;;;;;;;1.37;0.98;;;;;;;17.37;70.61;96865.66;1607615;87;21043;-79
2021/07/10 05:14:01;;;;;;;1.77;0.90;;;;;;;17.35;70.64;96869.80;1640786;87;21338;-79
2021/07/10 05:16:27;;;;;;;1.20;0.80;;;;;;;17.32;69.99;96864.98;1643941;86;21040;-79
2021/07/10 05:18:53;;;;;;;1.25;0.70;;;;;;;17.23;70.30;96866.75;1642114;85;21044;-79
2021/07/10 05:21:23;;;;;;;1.50;0.70;;;;;;;17.26;70.56;96871.61;1641433;86;21387;-78
2021/07/10 05:23:49;;;;;;;1.20;0.60;;;;;;;17.27;70.41;96876.64;1643628;86;21030;-78
2021/07/10 05:26:16;;;;;;;1.42;0.62;;;;;;;17.24;69.90;96884.92;1644128;86;21070;-79
2021/07/10 05:28:41;;;;;;;2.77;0.90;;;;;;;17.17;70.25;96885.48;1636578;87;20984;-78
2021/07/10 05:31:07;;;;;;;0.50;0.45;;;;;;;17.11;69.81;96886.33;1644055;86;21012;-79
2021/07/10 05:33:33;;;;;;;0.80;0.60;;;;;;;17.05;69.78;96883.22;1639249;86;20966;-79
2021/07/10 05:35:59;;;;;;;0.62;0.47;;;;;;;17.00;69.85;96887.79;1638302;86;21043;-79
2021/07/10 05:38:26;;;;;;;0.68;0.50;;;;;;;16.92;69.96;96888.52;1643124;86;20943;-79
2021/07/10 05:40:53;;;;;;;1.17;0.50;;;;;;;16.90;70.23;96887.42;1634516;86;20991;-79
2021/07/10 05:43:23;;;;;;;0.75;0.53;;;;;;;16.93;70.33;96890.97;1638333;86;21026;-79
2021/07/10 05:45:46;;;;;;;0.80;0.65;;;;;;;16.97;70.53;96893.97;1636265;86;21333;-79
2021/07/10 05:48:13;;;;;;;1.32;0.78;;;;;;;17.03;70.45;96893.92;1641945;86;21019;-79
2021/07/10 05:50:38;;;;;;;1.05;0.60;;;;;;;17.17;70.61;96895.17;1641557;86;21260;-79
2021/07/10 05:53:04;;;;;;;0.70;0.50;;;;;;;17.32;70.43;96893.88;1638404;86;20967;-78
2021/07/10 05:55:30;;;;;;;0.75;0.50;;;;;;;17.48;70.41;96893.08;1635512;86;21055;-78
2021/07/10 05:57:55;;;;;;;0.88;0.68;;;;;;;17.63;69.50;96890.95;1645808;86;20952;-79
2021/07/10 06:00:21;;;;;;;0.65;0.60;;;;;;;17.76;69.20;96894.02;1635573;86;20924;-79
2021/07/10 06:02:47;;;;;;;1.10;0.60;;;;;;;17.91;69.12;96901.08;1632528;86;21303;-79
2021/07/10 06:05:12;;;;;;;2.02;0.88;;;;;;;17.97;69.05;96897.58;1633466;86;20965;-78
2021/07/10 06:07:38;;;;;;;1.20;0.70;;;;;;;18.00;68.45;96894.00;1636098;86;20969;-79
2021/07/10 06:10:07;;;;;;;0.95;0.42;;;;;;;18.03;68.61;96891.95;1636639;86;20972;-79
2021/07/10 06:12:34;;;;;;;1.02;0.80;;;;;;;17.99;68.37;96898.97;1634634;86;21145;-79
2021/07/10 06:15:01;;;;;;;1.30;0.80;;;;;;;17.87;68.24;96913.02;1637545;86;21309;-78
2021/07/10 06:17:26;;;;;;;1.40;0.80;;;;;;;17.83;68.23;96911.34;1636768;86;21047;-79
2021/07/10 06:19:55;;;;;;;1.20;0.70;;;;;;;17.83;68.28;96908.70;1637157;86;20971;-79
2021/07/10 06:22:21;;;;;;;1.20;0.72;;;;;;;17.88;68.26;96912.80;1633150;86;21014;-79
2021/07/10 06:24:46;;;;;;;1.10;0.90;;;;;;;17.82;68.17;96901.84;1635055;86;21038;-79
2021/07/10 06:27:13;;;;;;;1.30;0.70;;;;;;;17.88;68.29;96909.37;1637912;86;21020;-80
2021/07/10 06:29:38;;;;;;;1.00;0.70;;;;;;;17.90;68.22;96912.11;1637180;86;21030;-78
2021/07/10 06:32:08;;;;;;;1.47;0.62;;;;;;;17.87;68.68;96913.02;1630763;87;20955;-79
2021/07/10 06:34:34;;;;;;;1.80;0.95;;;;;;;17.86;68.93;96917.47;1634893;86;20981;-79
2021/07/10 06:37:01;;;;;;;1.42;0.57;;;;;;;17.94;69.23;96906.70;1630864;86;21394;-79
2021/07/10 06:39:26;;;;;;;1.85;1.00;;;;;;;18.04;68.86;96912.77;1634628;86;21027;-79
2021/07/10 06:41:52;;;;;;;1.40;1.10;;;;;;;18.08;68.08;96917.12;1638438;86;20997;-79
2021/07/10 06:44:18;;;;;;;1.42;1.10;;;;;;;17.97;68.00;96923.36;1634210;86;21036;-78
2021/07/10 06:46:44;;;;;;;1.10;0.90;;;;;;;17.91;68.13;96920.28;1626946;86;21267;-79
2021/07/10 06:49:10;;;;;;;5.72;3.50;;;;;;;17.98;68.29;96915.77;1634318;86;20974;-78
2021/07/10 06:51:36;;;;;;;1.75;1.40;;;;;;;18.08;68.15;96913.97;1634447;86;21058;-79
2021/07/10 06:54:02;;;;;;;3.77;3.15;;;;;;;18.10;67.72;96909.81;1632681;86;21027;-79
2021/07/10 06:56:28;;;;;;;3.40;2.75;;;;;;;18.12;67.84;96913.03;1632356;87;21318;-79
2021/07/10 06:58:53;;;;;;;5.60;2.20;;;;;;;18.11;67.70;96916.68;1616787;89;20972;-79
2021/07/10 07:01:19;;;;;;;3.30;2.08;;;;;;;18.26;67.90;96919.78;1640923;86;20949;-79
2021/07/10 07:03:45;;;;;;;1.80;1.70;;;;;;;18.47;67.26;96918.55;1642456;86;21333;-78
2021/07/10 07:06:11;;;;;;;3.17;2.37;;;;;;;18.64;66.50;96905.66;1644023;86;20941;-78
2021/07/10 07:08:36;;;;;;;5.62;3.30;;;;;;;18.78;66.94;96907.11;1622076;87;20936;-78
2021/07/10 07:11:02;;;;;;;1.30;1.20;;;;;;;18.91;66.42;96916.17;1618196;87;21336;-79
2021/07/10 07:13:28;;;;;;;4.40;1.67;;;;;;;18.97;65.00;96914.48;1621177;87;20952;-79
2021/07/10 07:15:53;;;;;;;8.58;4.53;;;;;;;18.93;65.64;96915.95;1620356;87;21008;-79
2021/07/10 07:18:19;;;;;;;1.75;1.15;;;;;;;19.03;66.34;96918.84;1623684;88;21031;-79
2021/07/10 07:20:46;;;;;;;1.45;0.98;;;;;;;19.18;65.91;96920.06;1625701;88;21012;-79
2021/07/10 07:23:11;;;;;;;4.85;2.62;;;;;;;19.35;65.42;96914.97;1646729;85;20944;-78
2021/07/10 07:25:37;;;;;;;9.65;4.80;;;;;;;19.55;65.93;96920.02;1622572;88;21296;-81
2021/07/10 07:28:04;;;;;;;1.60;1.27;;;;;;;19.71;65.14;96910.14;1625888;88;20982;-81
2021/07/10 07:30:30;;;;;;;6.58;3.77;;;;;;;19.82;65.37;96912.49;1628389;86;21029;-81
2021/07/10 07:32:56;;;;;;;2.92;1.75;;;;;;;19.94;64.90;96913.32;1627580;86;20993;-81
2021/07/10 07:35:22;;;;;;;7.85;4.40;;;;;;;20.00;65.35;96912.40;1625013;86;21048;-82
2021/07/10 07:37:48;;;;;;;2.95;1.62;;;;;;;19.96;64.58;96915.21;1642506;86;21080;-81
2021/07/10 07:40:14;;;;;;;3.47;2.05;;;;;;;19.99;64.37;96913.95;1642278;85;21024;-81
2021/07/10 07:42:42;;;;;;;5.40;3.27;;;;;;;19.85;63.39;96906.79;1640812;86;21036;-81
2021/07/10 07:45:09;;;;;;;8.18;4.40;;;;;;;19.91;64.30;96910.34;1643831;86;21051;-82
2021/07/10 07:47:35;;;;;;;1.25;1.10;;;;;;;20.02;63.53;96910.88;1640829;86;21266;-81
2021/07/10 07:50:01;;;;;;;1.87;1.42;;;;;;;19.89;63.79;96903.17;1638874;86;20934;-82
2021/07/10 07:52:26;;;;;;;1.20;1.10;;;;;;;19.75;64.11;96904.70;1643823;85;20959;-81
2021/07/10 07:54:52;;;;;;;1.50;1.27;;;;;;;19.71;64.18;96908.83;1644771;85;20923;-81
2021/07/10 07:57:18;;;;;;;1.70;1.10;;;;;;;19.68;64.63;96912.41;1640493;86;21032;-80
2021/07/10 07:59:44;;;;;;;1.77;1.15;;;;;;;19.63;64.91;96909.66;1648010;86;21010;-79
2021/07/10 08:02:10;;;;;;;1.90;1.47;;;;;;;19.58;65.11;96910.85;1642346;85;20975;-79
2021/07/10 08:04:36;;;;;;;2.33;1.15;;;;;;;19.48;65.11;96908.72;1643357;86;21243;-79
2021/07/10 08:07:03;;;;;;;2.90;1.10;;;;;;;19.54;65.14;96914.46;1641283;86;20930;-79
2021/07/10 08:09:29;;;;;;;2.33;1.27;;;;;;;19.50;64.59;96911.93;1637382;86;21044;-79
2021/07/10 08:11:56;;;;;;;1.95;1.17;;;;;;;19.56;64.89;96914.23;1639802;86;21051;-79
2021/07/10 08:14:22;;;;;;;1.60;1.20;;;;;;;19.61;64.62;96908.56;1640659;86;21009;-79
2021/07/10 08:16:49;;;;;;;2.27;1.30;;;;;;;19.73;64.59;96904.13;1643754;86;21052;-79
2021/07/10 08:19:15;;;;;;;2.87;1.10;;;;;;;20.00;64.62;96898.41;1610154;87;21031;-79
2021/07/10 08:21:41;;;;;;;1.82;1.00;;;;;;;20.12;63.71;96902.38;1659770;85;21217;-79
2021/07/10 08:24:07;;;;;;;2.75;1.20;;;;;;;20.25;64.47;96902.95;1652464;85;20973;-79
2021/07/10 08:26:32;;;;;;;1.72;1.40;;;;;;;20.33;63.96;96894.67;1655212;85;20951;-79
2021/07/10 08:28:58;;;;;;;2.80;1.67;;;;;;;20.21;62.92;96897.86;1650530;86;20976;-78
2021/07/10 08:31:24;;;;;;;13.95;7.03;;;;;;;20.00;63.69;96911.59;1619334;87;21002;-79
2021/07/10 08:33:50;;;;;;;3.35;2.05;;;;;;;19.98;63.94;96908.39;1629954;87;21001;-79
2021/07/10 08:36:16;;;;;;;2.12;1.40;;;;;;;20.26;63.35;96915.63;1642767;85;21026;-79
2021/07/10 08:38:42;;;;;;;1.92;1.10;;;;;;;20.48;63.61;96909.27;1641412;86;21017;-79
2021/07/10 08:41:09;;;;;;;2.02;1.10;;;;;;;20.72;63.44;96896.34;1652414;86;21594;-79
2021/07/10 08:43:36;;;;;;;1.42;1.30;;;;;;;21.02;62.63;96899.30;1644304;85;20990;-79
2021/07/10 08:46:04;;;;;;;4.87;3.10;;;;;;;21.08;61.46;96904.95;1647232;86;20957;-79
2021/07/10 08:48:32;;;;;;;1.47;1.35;;;;;;;21.00;62.30;96904.02;1651469;85;20981;-79
2021/07/10 08:50:58;;;;;;;2.37;1.42;;;;;;;20.83;61.57;96915.84;1642254;85;20924;-79
2021/07/10 08:53:24;;;;;;;1.67;1.40;;;;;;;20.61;61.75;96912.99;1640563;86;21364;-78
2021/07/10 08:55:50;;;;;;;3.45;1.12;;;;;;;20.55;62.17;96909.45;1643984;86;20984;-79
2021/07/10 08:58:20;;;;;;;1.87;1.30;;;;;;;20.58;61.41;96912.14;1649625;86;21030;-79
2021/07/10 09:00:47;;;;;;;1.65;1.30;;;;;;;20.47;61.00;96911.63;1641809;86;21057;-79
2021/07/10 09:03:12;;;;;;;1.57;1.30;;;;;;;20.36;61.48;96914.55;1640526;86;20997;-79
2021/07/10 09:05:39;;;;;;;1.92;1.52;;;;;;;20.32;63.09;96908.91;1638622;87;20974;-79
2021/07/10 09:08:23;;;;;;;1.20;1.10;;;;;;;20.32;62.80;96915.50;1642358;86;20971;-79
2021/07/10 09:11:01;;;;;;;3.25;1.60;;;;;;;20.32;61.66;96914.70;1654243;86;21038;-79
2021/07/10 09:13:49;;;;;;;3.45;1.52;;;;;;;20.29;62.01;96914.65;1650407;86;21256;-79
2021/07/10 09:16:20;;;;;;;0.80;0.80;;;;;;;20.40;62.23;96905.13;1654006;85;20917;-79
2021/07/10 09:18:49;;;;;;;2.67;1.02;;;;;;;20.81;62.11;96895.44;1650579;85;21065;-79
2021/07/10 09:21:34;;;;;;;1.67;1.40;;;;;;;21.02;62.08;96901.94;1654976;85;21031;-79
2021/07/10 09:24:00;;;;;;;1.70;1.55;;;;;;;21.07;61.87;96900.70;1639408;85;20968;-79
2021/07/10 09:26:26;;;;;;;2.15;1.50;;;;;;;21.14;61.13;96905.33;1663165;85;21342;-79
2021/07/10 09:29:14;;;;;;;2.55;1.70;;;;;;;20.95;60.59;96904.19;1649048;86;20999;-79
2021/07/10 09:31:46;;;;;;;1.40;1.30;;;;;;;20.88;61.34;96902.20;1639380;86;21022;-79
2021/07/10 09:34:18;;;;;;;2.83;1.90;;;;;;;20.88;61.18;96904.84;1647082;86;21002;-79
2021/07/10 09:36:59;;;;;;;3.47;2.60;;;;;;;21.10;60.85;96902.88;1664948;86;21015;-79
2021/07/10 09:39:31;;;;;;;2.00;1.50;;;;;;;21.37;62.04;96904.47;1648706;85;21055;-79
2021/07/10 09:41:58;;;;;;;1.77;1.50;;;;;;;21.63;60.45;96905.17;1655474;85;20943;-78
2021/07/10 09:44:24;;;;;;;1.32;1.22;;;;;;;21.63;60.33;96907.02;1667991;85;21004;-79
2021/07/10 09:46:50;;;;;;;1.77;1.62;;;;;;;21.46;58.69;96905.67;1662791;85;21010;-79
2021/07/10 09:49:26;;;;;;;2.87;2.40;;;;;;;21.32;59.94;96906.52;1648884;85;20967;-80
2021/07/10 09:52:03;;;;;;;2.92;2.08;;;;;;;21.24;58.75;96910.81;1658649;85;20965;-79
2021/07/10 09:54:41;;;;;;;4.80;2.50;;;;;;;21.17;58.96;96911.48;1661516;85;20953;-80
2021/07/10 09:57:18;;;;;;;3.37;2.30;;;;;;;21.52;59.82;96908.19;1642170;87;21056;-80
2021/07/10 09:59:53;;;;;;;5.15;3.30;;;;;;;21.79;59.63;96911.52;1665157;85;21016;-80
2021/07/10 10:02:26;;;;;;;2.60;1.80;;;;;;;21.77;58.72;96906.48;1668072;84;21260;-79
2021/07/10 10:05:10;;;;;;;3.45;1.87;;;;;;;21.75;58.40;96905.92;1656546;85;20977;-79
2021/07/10 10:07:55;;;;;;;2.08;1.87;;;;;;;21.69;59.51;96902.12;1643628;85;20923;-79
2021/07/10 10:10:33;;;;;;;3.27;2.20;;;;;;;21.94;58.99;96907.80;1665809;86;21044;-79
2021/07/10 10:13:11;;;;;;;3.17;2.30;;;;;;;22.07;59.39;96903.55;1647173;85;20976;-79
2021/07/10 10:15:48;;;;;;;3.50;2.45;;;;;;;22.03;57.52;96906.37;1654168;85;20958;-79
2021/07/10 10:18:22;;;;;;;4.85;3.47;;;;;;;21.85;58.07;96908.73;1658616;85;20987;-79
2021/07/10 10:20:48;;;;;;;12.88;9.28;;;;;;;21.88;58.49;96911.42;1659261;85;20928;-85
2021/07/10 10:23:16;;;;;;;2.60;2.40;;;;;;;21.87;57.64;96916.44;1653027;85;21015;-81
2021/07/10 10:25:42;;;;;;;2.45;2.20;;;;;;;21.83;57.28;96911.34;1660705;85;20955;-81
2021/07/10 10:28:18;;;;;;;2.27;2.05;;;;;;;22.01;57.66;96904.49;1642192;85;20934;-82
2021/07/10 10:30:38;;;;;;;2.60;1.70;;;;;;;22.23;57.38;96902.45;1660214;85;20929;-82
2021/07/10 10:33:04;;;;;;;4.85;2.10;;;;;;;22.17;57.53;96902.91;1681967;84;20940;-83
2021/07/10 10:35:30;;;;;;;2.65;1.70;;;;;;;22.36;58.45;96905.56;1659136;86;20952;-83
2021/07/10 10:37:56;;;;;;;4.33;3.20;;;;;;;22.34;57.52;96903.69;1644523;85;21035;-83
2021/07/10 10:40:25;;;;;;;2.60;2.25;;;;;;;22.22;57.70;96907.47;1640646;86;20967;-83
2021/07/10 10:42:55;;;;;;;2.58;1.82;;;;;;;22.11;57.40;96907.83;1641036;86;20970;-82
2021/07/10 10:45:34;;;;;;;2.17;1.97;;;;;;;22.05;58.25;96904.31;1644089;86;21316;-82
2021/07/10 10:48:00;;;;;;;13.03;10.40;;;;;;;22.30;58.80;96901.77;1646633;86;21004;-83
2021/07/10 10:50:31;;;;;;;4.45;3.80;;;;;;;22.55;58.34;96899.98;1652679;85;20983;-83
2021/07/10 10:52:58;;;;;;;5.35;4.85;;;;;;;22.80;57.38;96899.52;1657964;85;21281;-83
2021/07/10 10:55:33;;;;;;;3.20;2.92;;;;;;;22.76;57.68;96898.66;1652534;85;20979;-82
2021/07/10 10:58:26;;;;;;;2.55;2.10;;;;;;;22.87;57.70;96898.30;1651232;85;20949;-84
2021/07/10 11:01:01;;;;;;;;;;;;;;;23.02;56.86;96893.17;1654012;85;21022;-83
2021/07/10 11:03:42;;;;;;;2.25;2.05;;;;;;;23.25;57.37;96898.72;1657907;85;20078;-82
2021/07/10 11:06:30;;;;;;;3.00;2.50;;;;;;;23.24;57.39;96894.98;1643984;85;21308;-78
2021/07/10 11:08:56;;;;;;;1.67;1.57;;;;;;;22.87;55.44;96891.68;1648619;86;21025;-78
2021/07/10 11:11:26;;;;;;;2.00;1.80;;;;;;;22.59;54.85;96894.47;1617298;87;21301;-78
2021/07/10 11:14:08;;;;;;;2.45;1.90;;;;;;;22.66;55.89;96892.45;1618594;87;21045;-80
2021/07/10 11:16:53;;;;;;;1.87;1.65;;;;;;;22.75;54.44;96892.28;1637856;86;21018;-78
2021/07/10 11:19:19;;;;;;;2.67;1.85;;;;;;;22.68;55.54;96893.01;1626371;86;20939;-78
2021/07/10 11:21:44;;;;;;;2.95;1.90;;;;;;;22.77;55.48;96890.19;1614095;86;21306;-78
2021/07/10 11:24:20;;;;;;;1.62;1.50;;;;;;;22.88;54.32;96887.98;1654131;86;20936;-78
2021/07/10 11:27:00;;;;;;;1.80;1.62;;;;;;;22.97;54.80;96885.70;1655753;85;20995;-77
2021/07/10 11:29:41;;;;;;;2.72;1.67;;;;;;;23.12;54.28;96885.08;1654316;85;20988;-78
2021/07/10 11:32:18;;;;;;;2.00;1.55;;;;;;;23.23;53.79;96890.22;1633900;86;20948;-77
2021/07/10 11:34:55;;;;;;;1.90;1.70;;;;;;;23.29;53.37;96884.45;1637205;86;20978;-77
2021/07/10 11:37:27;;;;;;;4.53;1.85;;;;;;;23.39;53.92;96882.41;1642129;85;21228;-78